Time;durP1;ratioP1;P1;durP2;ratioP2;P2;SDS_P1;SDS_P2;PMS_P1;PMS_P2;Temp;Humidity;BMP_temperature;BMP_pressure;BME280_temperature;BME280_humidity;BME280_pressure;Samples;Min_cycle;Max_cycle;Signal;HPM_P1;HPM_P2
2022/01/04 00:01:36;;;;;;;13.77;4.67;;;8.30;99.90;;;;;;5059977;28;20200;-39
2022/01/04 00:04:03;;;;;;;8.30;3.90;;;8.30;99.90;;;;;;5080994;28;20226;-39
2022/01/04 00:06:30;;;;;;;10.63;4.00;;;8.30;99.90;;;;;;5085014;28;20226;-43
2022/01/04 00:09:00;;;;;;;9.47;4.13;;;8.40;99.90;;;;;;5071831;28;20210;-42
2022/01/04 00:11:43;;;;;;;10.33;3.73;;;8.30;99.90;;;;;;5076724;28;20211;-42
2022/01/04 00:14:11;;;;;;;17.10;4.23;;;8.30;99.90;;;;;;5062432;28;20403;-42
2022/01/04 00:16:38;;;;;;;16.37;4.30;;;8.40;99.90;;;;;;5060179;27;20992;-43
2022/01/04 00:19:05;;;;;;;7.93;3.97;;;8.40;99.90;;;;;;5077985;28;20204;-43
2022/01/04 00:21:32;;;;;;;13.23;4.17;;;8.40;99.90;;;;;;5064727;28;20208;-43
2022/01/04 00:24:00;;;;;;;15.53;4.30;;;8.40;99.90;;;;;;5073837;28;20212;-43
2022/01/04 00:26:27;;;;;;;8.20;4.10;;;8.50;99.90;;;;;;5073873;28;20230;-43
2022/01/04 00:28:54;;;;;;;14.27;4.77;;;8.50;99.90;;;;;;5062837;28;20204;-39
2022/01/04 00:31:22;;;;;;;12.60;3.93;;;8.40;99.90;;;;;;5056164;28;20214;-39
2022/01/04 00:33:50;;;;;;;8.83;3.43;;;8.50;99.90;;;;;;5064283;28;20196;-47
2022/01/04 00:36:17;;;;;;;14.20;4.27;;;8.40;99.90;;;;;;5073656;28;20215;-47
2022/01/04 00:38:44;;;;;;;12.57;4.63;;;8.50;99.90;;;;;;5071711;28;20211;-47
2022/01/04 00:41:11;;;;;;;12.23;4.43;;;8.50;99.90;;;;;;5050964;28;20216;-43
2022/01/04 00:43:37;;;;;;;12.67;3.90;;;8.50;99.90;;;;;;5062528;28;20225;-43
2022/01/04 00:46:04;;;;;;;12.80;4.83;;;8.50;99.90;;;;;;5073303;28;20224;-43
2022/01/04 00:51:17;;;;;;;13.63;5.30;;;8.50;99.90;;;;;;5079624;28;20198;-39
2022/01/04 00:53:44;;;;;;;14.67;4.10;;;8.40;99.90;;;;;;5075166;28;20204;-39
2022/01/04 00:56:11;;;;;;;8.73;4.20;;;8.40;99.90;;;;;;5049680;28;20441;-39
2022/01/04 00:58:37;;;;;;;11.97;4.07;;;8.40;99.90;;;;;;5072605;28;20947;-39
2022/01/04 01:01:04;;;;;;;12.30;4.03;;;8.40;99.90;;;;;;5049460;28;20615;-42
2022/01/04 01:03:32;;;;;;;11.90;4.40;;;8.40;99.90;;;;;;5060789;28;21085;-42
2022/01/04 01:05:59;;;;;;;17.20;5.43;;;8.40;99.90;;;;;;5071012;28;20224;-42
2022/01/04 01:08:26;;;;;;;10.40;4.50;;;8.30;99.90;;;;;;5069620;28;20661;-42
2022/01/04 01:10:53;;;;;;;10.97;4.23;;;8.30;99.90;;;;;;5069193;28;20214;-43
2022/01/04 01:13:20;;;;;;;8.10;4.23;;;8.40;99.90;;;;;;5059058;28;21014;-43
2022/01/04 01:15:47;;;;;;;13.87;4.97;;;8.30;99.90;;;;;;5060845;28;20224;-42
2022/01/04 01:18:16;;;;;;;14.83;4.63;;;8.30;99.90;;;;;;5061248;28;20264;-42
2022/01/04 01:20:47;;;;;;;8.47;4.93;;;8.40;99.90;;;;;;5082598;28;20211;-42
2022/01/04 01:23:14;;;;;;;14.67;5.10;;;8.30;99.90;;;;;;5064943;28;21364;-42
2022/01/04 01:25:41;;;;;;;7.53;4.47;;;8.40;99.90;;;;;;5067299;28;20735;-42
2022/01/04 01:28:08;;;;;;;6.10;4.63;;;8.30;99.90;;;;;;5065134;28;20220;-42
2022/01/04 01:30:38;;;;;;;18.73;6.50;;;8.30;99.90;;;;;;5066404;28;20212;-42
2022/01/04 01:33:05;;;;;;;15.70;6.40;;;8.30;99.90;;;;;;5068529;28;20204;-42
2022/01/04 01:35:33;;;;;;;16.57;6.13;;;8.30;99.90;;;;;;5080975;28;20211;-47
2022/01/04 01:38:01;;;;;;;17.17;7.40;;;8.30;99.90;;;;;;5074960;28;20336;-47
2022/01/04 01:40:29;;;;;;;13.83;7.10;;;8.30;99.90;;;;;;5065328;28;20234;-42
2022/01/04 01:42:55;;;;;;;13.90;6.40;;;8.30;99.90;;;;;;5062763;28;20336;-42
2022/01/04 01:45:23;;;;;;;16.83;6.77;;;8.30;99.90;;;;;;5065951;28;20212;-42
2022/01/04 01:47:50;;;;;;;14.10;7.57;;;8.30;99.90;;;;;;5076168;28;20309;-42
2022/01/04 01:50:19;;;;;;;18.07;6.93;;;8.30;99.90;;;;;;5063625;28;20206;-42
2022/01/04 01:52:49;;;;;;;13.70;6.70;;;8.30;99.90;;;;;;5074605;28;20203;-40
2022/01/04 01:55:19;;;;;;;9.97;6.60;;;8.30;99.90;;;;;;5062758;28;20204;-39
2022/01/04 01:57:46;;;;;;;12.73;6.40;;;8.30;99.90;;;;;;5069672;28;20192;-39
2022/01/04 02:00:17;;;;;;;17.03;7.50;;;8.30;99.90;;;;;;5077065;28;20210;-47
2022/01/04 02:02:44;;;;;;;18.47;6.77;;;8.30;99.90;;;;;;5054113;28;20212;-42
2022/01/04 02:05:11;;;;;;;17.37;7.00;;;8.30;99.90;;;;;;5065602;28;20202;-42
2022/01/04 02:07:41;;;;;;;14.10;6.53;;;8.30;99.90;;;;;;5069535;28;20222;-42
2022/01/04 02:10:09;;;;;;;15.50;6.90;;;8.30;99.90;;;;;;5075230;28;20602;-43
2022/01/04 02:12:39;;;;;;;12.87;7.23;;;8.20;99.90;;;;;;5056506;28;20230;-47
2022/01/04 02:15:09;;;;;;;13.07;7.33;;;8.30;99.90;;;;;;5081192;28;20567;-43
2022/01/04 02:17:36;;;;;;;13.17;7.00;;;8.20;99.90;;;;;;5057803;28;20242;-43
2022/01/04 02:20:06;;;;;;;14.97;6.93;;;8.20;99.90;;;;;;5062834;28;20207;-43
2022/01/04 02:22:34;;;;;;;14.23;6.73;;;8.20;99.90;;;;;;5072153;28;20208;-43
2022/01/04 02:25:01;;;;;;;13.60;6.67;;;8.20;99.90;;;;;;5069916;28;20236;-39
2022/01/04 02:27:28;;;;;;;13.43;6.83;;;8.20;99.90;;;;;;5067702;28;20223;-42
2022/01/04 02:29:55;;;;;;;14.07;6.80;;;8.20;99.90;;;;;;5077475;28;20225;-42
2022/01/04 02:32:22;;;;;;;11.00;7.17;;;8.10;99.90;;;;;;5068116;28;20209;-42
2022/01/04 02:34:50;;;;;;;10.07;7.20;;;8.10;99.90;;;;;;5067338;28;20200;-43
2022/01/04 02:37:22;;;;;;;15.07;7.30;;;8.10;99.90;;;;;;5081136;28;20223;-47
2022/01/04 02:39:49;;;;;;;16.30;7.13;;;8.10;99.90;;;;;;5085061;28;20930;-42
2022/01/04 02:42:16;;;;;;;17.80;7.60;;;8.10;99.90;;;;;;5068134;28;20225;-42
2022/01/04 02:44:43;;;;;;;16.00;7.33;;;8.10;99.90;;;;;;5087668;28;20216;-42
2022/01/04 02:47:10;;;;;;;14.03;7.13;;;8.10;99.90;;;;;;5078667;28;20804;-42
2022/01/04 02:49:37;;;;;;;14.80;7.10;;;8.10;99.90;;;;;;5062715;28;20219;-43
2022/01/04 02:52:05;;;;;;;11.37;7.37;;;8.10;99.90;;;;;;5067474;28;20214;-42
2022/01/04 02:54:33;;;;;;;14.30;8.10;;;8.10;99.90;;;;;;5090949;28;20188;-42
2022/01/04 02:57:00;;;;;;;21.17;7.70;;;8.10;99.90;;;;;;5064718;28;20232;-47
2022/01/04 02:59:27;;;;;;;17.83;8.10;;;8.10;99.90;;;;;;5087509;28;20183;-47
2022/01/04 03:01:54;;;;;;;17.10;8.70;;;8.10;99.90;;;;;;5062921;27;20218;-42
2022/01/04 03:04:21;;;;;;;12.10;7.10;;;8.10;99.90;;;;;;5062221;27;20405;-43
2022/01/04 03:06:48;;;;;;;17.90;8.40;;;8.10;99.90;;;;;;5064181;28;20657;-42
2022/01/04 03:09:15;;;;;;;17.10;8.33;;;8.10;99.90;;;;;;5081376;28;20196;-43
2022/01/04 03:11:44;;;;;;;16.27;8.70;;;8.10;99.90;;;;;;5081199;28;20195;-43
2022/01/04 03:14:11;;;;;;;13.93;8.73;;;8.10;99.90;;;;;;5070353;28;20238;-43
2022/01/04 03:16:38;;;;;;;15.90;8.27;;;8.10;99.90;;;;;;5080504;28;20439;-43
2022/01/04 03:19:06;;;;;;;17.53;8.47;;;8.10;99.90;;;;;;5066696;28;20220;-43
2022/01/04 03:21:34;;;;;;;21.33;9.43;;;8.10;99.90;;;;;;5073037;28;20238;-43
2022/01/04 03:24:02;;;;;;;16.27;9.00;;;8.10;99.90;;;;;;5083354;28;20276;-43
2022/01/04 03:26:29;;;;;;;19.60;8.93;;;8.00;99.90;;;;;;5080596;28;20228;-43
2022/01/04 03:28:58;;;;;;;14.53;8.50;;;8.00;99.90;;;;;;5069443;28;20207;-43
2022/01/04 03:31:38;;;;;;;13.03;8.70;;;8.00;99.90;;;;;;5070637;27;20199;-43
2022/01/04 03:34:06;;;;;;;13.13;8.57;;;8.00;99.90;;;;;;5080861;28;20204;-43
2022/01/04 03:36:33;;;;;;;15.70;9.40;;;7.90;99.90;;;;;;5046352;28;20768;-39
2022/01/04 03:39:04;;;;;;;21.90;9.80;;;8.00;99.90;;;;;;5085964;27;20208;-39
2022/01/04 03:41:32;;;;;;;19.00;9.70;;;7.90;99.90;;;;;;5079795;28;20196;-39
2022/01/04 03:44:00;;;;;;;17.50;9.03;;;8.00;99.90;;;;;;5066975;27;20241;-39
2022/01/04 03:46:27;;;;;;;15.63;8.77;;;7.90;99.90;;;;;;5070931;28;20219;-39
2022/01/04 03:48:54;;;;;;;22.17;10.13;;;7.90;99.90;;;;;;5074849;27;20662;-39
2022/01/04 03:51:21;;;;;;;17.70;9.83;;;7.90;99.90;;;;;;5052780;27;20220;-39
2022/01/04 03:53:48;;;;;;;24.03;10.30;;;7.90;99.90;;;;;;5082420;28;20200;-43
2022/01/04 03:56:15;;;;;;;18.60;10.40;;;7.90;99.90;;;;;;5080919;28;21068;-48
2022/01/04 03:58:42;;;;;;;19.63;11.20;;;8.00;99.90;;;;;;5087137;28;20203;-47
2022/01/04 04:01:11;;;;;;;22.07;11.07;;;7.90;99.90;;;;;;5066296;28;20207;-47
2022/01/04 04:03:38;;;;;;;17.43;10.20;;;7.90;99.90;;;;;;5078637;28;20211;-48
2022/01/04 04:06:05;;;;;;;18.50;10.47;;;7.90;99.90;;;;;;5066270;28;20234;-47
2022/01/04 04:08:32;;;;;;;19.07;10.27;;;7.90;99.90;;;;;;5061672;28;20251;-43
2022/01/04 04:10:59;;;;;;;18.00;10.70;;;7.90;99.90;;;;;;5088742;28;20653;-43
2022/01/04 04:13:26;;;;;;;19.17;11.03;;;7.90;99.90;;;;;;5076595;28;20277;-42
2022/01/04 04:15:53;;;;;;;23.63;11.10;;;7.90;99.90;;;;;;5065557;28;20650;-43
2022/01/04 04:18:21;;;;;;;19.57;11.10;;;7.90;99.90;;;;;;5082687;28;20256;-43
2022/01/04 04:20:48;;;;;;;22.07;12.03;;;7.90;99.90;;;;;;5071156;28;20714;-43
2022/01/04 04:23:15;;;;;;;23.50;11.20;;;7.80;99.90;;;;;;5041600;28;21140;-43
2022/01/04 04:25:42;;;;;;;19.93;11.17;;;7.80;99.90;;;;;;5082344;28;20243;-43
2022/01/04 04:28:09;;;;;;;23.27;10.27;;;7.80;99.90;;;;;;5079949;28;20208;-39
2022/01/04 04:30:37;;;;;;;19.13;10.80;;;7.80;99.90;;;;;;5064857;28;20207;-39
2022/01/04 04:33:04;;;;;;;18.53;11.60;;;7.80;99.90;;;;;;5078840;28;20204;-39
2022/01/04 04:35:32;;;;;;;19.00;10.70;;;7.80;99.90;;;;;;5072950;28;20230;-39
2022/01/04 04:37:59;;;;;;;18.37;10.93;;;7.80;99.90;;;;;;5064012;28;20211;-40
2022/01/04 04:40:26;;;;;;;21.60;10.00;;;7.80;99.90;;;;;;5061851;28;20199;-40
2022/01/04 04:42:53;;;;;;;20.90;11.27;;;7.80;99.90;;;;;;5082821;28;20886;-39
2022/01/04 04:45:21;;;;;;;21.00;11.60;;;7.80;99.90;;;;;;5080495;28;20257;-40
2022/01/04 04:47:48;;;;;;;20.13;10.53;;;7.80;99.90;;;;;;5071440;28;20213;-40
2022/01/04 04:50:15;;;;;;;22.67;11.30;;;7.80;99.90;;;;;;5078223;28;20912;-39
2022/01/04 04:52:43;;;;;;;19.37;11.23;;;7.80;99.90;;;;;;5064159;28;20210;-39
2022/01/04 04:55:11;;;;;;;20.90;11.43;;;7.80;99.90;;;;;;5065097;28;20681;-39
2022/01/04 04:57:38;;;;;;;20.40;11.63;;;7.80;99.90;;;;;;5085340;27;20223;-39
2022/01/04 05:00:07;;;;;;;25.00;10.70;;;7.80;99.90;;;;;;5078680;28;20208;-40
2022/01/04 05:02:34;;;;;;;23.27;11.13;;;7.90;99.90;;;;;;5059489;28;20203;-39
2022/01/04 05:05:01;;;;;;;20.70;10.87;;;7.80;99.90;;;;;;5083848;28;20574;-43
2022/01/04 05:07:28;;;;;;;20.13;10.93;;;7.90;99.90;;;;;;5063700;28;21508;-43
2022/01/04 05:09:56;;;;;;;16.80;11.50;;;7.90;99.90;;;;;;5056824;28;20219;-43
2022/01/04 05:12:23;;;;;;;20.57;10.97;;;7.90;99.90;;;;;;5065014;28;20208;-43
2022/01/04 05:14:50;;;;;;;21.97;12.17;;;7.90;99.90;;;;;;5082584;28;21087;-43
2022/01/04 05:17:17;;;;;;;17.27;10.67;;;7.90;99.90;;;;;;5059127;28;20241;-43
2022/01/04 05:19:44;;;;;;;23.13;11.23;;;8.00;99.90;;;;;;5081940;28;20206;-43
2022/01/04 05:22:11;;;;;;;20.97;11.00;;;7.90;99.90;;;;;;5085800;28;20217;-43
2022/01/04 05:24:37;;;;;;;19.80;11.20;;;7.90;99.90;;;;;;5039427;28;20276;-44
2022/01/04 05:27:06;;;;;;;18.33;11.10;;;7.90;99.90;;;;;;5069859;28;20228;-43
2022/01/04 05:29:33;;;;;;;25.50;10.90;;;7.90;99.90;;;;;;5067168;28;20657;-43
2022/01/04 05:32:00;;;;;;;22.43;11.23;;;7.90;99.90;;;;;;5035179;28;20288;-43
2022/01/04 05:34:27;;;;;;;25.97;12.67;;;7.90;99.90;;;;;;5074496;28;22511;-43
2022/01/04 05:36:54;;;;;;;23.20;10.83;;;7.90;99.90;;;;;;5066567;28;20242;-43
2022/01/04 05:39:21;;;;;;;21.10;10.27;;;8.00;99.90;;;;;;5043156;28;20210;-42
2022/01/04 05:41:48;;;;;;;24.47;10.63;;;8.00;99.90;;;;;;5072228;28;20238;-42
2022/01/04 05:44:16;;;;;;;20.13;9.93;;;8.00;99.90;;;;;;5077096;28;20260;-42
2022/01/04 05:46:44;;;;;;;22.60;10.97;;;8.00;99.90;;;;;;5065339;28;20223;-42
2022/01/04 05:49:11;;;;;;;23.07;10.87;;;8.00;99.90;;;;;;5062205;28;20339;-42
2022/01/04 05:51:37;;;;;;;17.03;10.33;;;7.90;99.90;;;;;;5077914;28;20195;-42
2022/01/04 05:54:05;;;;;;;16.77;10.40;;;8.00;99.90;;;;;;5042853;28;22643;-42
2022/01/04 05:56:32;;;;;;;16.67;10.03;;;8.00;99.90;;;;;;5074154;28;20256;-42
2022/01/04 05:58:59;;;;;;;23.27;11.20;;;8.00;99.90;;;;;;5074952;28;20206;-42
2022/01/04 06:01:27;;;;;;;20.23;10.37;;;8.00;99.90;;;;;;5076136;27;20203;-42
2022/01/04 06:03:54;;;;;;;23.13;11.17;;;8.00;99.90;;;;;;5069145;28;20200;-42
2022/01/04 06:06:21;;;;;;;22.57;10.57;;;8.00;99.90;;;;;;5080383;27;20234;-42
2022/01/04 06:08:49;;;;;;;19.20;10.63;;;8.00;99.90;;;;;;5066665;28;20206;-39
2022/01/04 06:11:31;;;;;;;23.20;12.07;;;8.00;99.90;;;;;;5071215;28;20770;-39
2022/01/04 06:16:43;;;;;;;19.10;12.07;;;7.90;99.90;;;;;;5052521;28;20219;-39
2022/01/04 06:19:10;;;;;;;20.43;12.87;;;7.90;99.90;;;;;;5060748;28;20208;-39
2022/01/04 06:21:37;;;;;;;23.30;11.73;;;8.00;99.90;;;;;;5075499;28;20200;-40
2022/01/04 06:24:04;;;;;;;21.90;11.27;;;7.90;99.90;;;;;;5075817;28;20229;-39
2022/01/04 06:26:31;;;;;;;18.60;11.63;;;8.00;99.90;;;;;;5063423;28;20788;-39
2022/01/04 06:28:58;;;;;;;16.83;11.37;;;8.00;99.90;;;;;;5074288;28;20231;-39
2022/01/04 06:31:26;;;;;;;21.93;12.47;;;8.00;99.90;;;;;;5079834;28;20201;-39
2022/01/04 06:33:55;;;;;;;19.63;12.23;;;8.00;99.90;;;;;;5061682;28;20211;-39
2022/01/04 06:36:22;;;;;;;16.67;11.10;;;8.00;99.90;;;;;;5068721;27;20234;-39
2022/01/04 06:38:49;;;;;;;27.67;11.97;;;8.10;99.90;;;;;;5067710;28;20208;-40
2022/01/04 06:41:16;;;;;;;17.70;10.27;;;8.00;99.90;;;;;;5060012;28;20208;-39
2022/01/04 06:43:43;;;;;;;22.03;12.20;;;8.00;99.90;;;;;;5077511;28;20219;-39
2022/01/04 06:46:11;;;;;;;19.27;11.83;;;8.10;99.90;;;;;;5071643;28;20224;-40
2022/01/04 06:48:39;;;;;;;18.27;11.70;;;8.00;99.90;;;;;;5077528;28;20208;-40
2022/01/04 06:51:07;;;;;;;28.33;11.40;;;8.10;99.90;;;;;;5050410;28;20693;-39
2022/01/04 06:53:34;;;;;;;17.03;10.70;;;8.10;99.90;;;;;;5076864;28;20196;-47
2022/01/04 06:56:01;;;;;;;25.40;12.10;;;8.10;99.90;;;;;;5066191;28;20228;-47
2022/01/04 06:58:28;;;;;;;25.27;11.60;;;8.10;99.90;;;;;;5048472;28;20211;-47
2022/01/04 07:00:55;;;;;;;21.17;10.93;;;8.10;99.90;;;;;;5079929;27;20938;-47
2022/01/04 07:03:22;;;;;;;22.43;11.83;;;8.10;99.90;;;;;;5070947;28;20200;-47
2022/01/04 07:05:49;;;;;;;22.90;12.13;;;8.10;99.90;;;;;;5084775;28;20226;-48
2022/01/04 07:08:17;;;;;;;20.43;11.47;;;8.20;99.90;;;;;;5069023;28;20703;-47
2022/01/04 07:10:44;;;;;;;20.93;11.70;;;8.20;99.90;;;;;;5067634;28;20848;-48
2022/01/04 07:13:11;;;;;;;23.77;10.97;;;8.20;99.90;;;;;;5067971;28;20211;-46
2022/01/04 07:15:38;;;;;;;17.53;11.60;;;8.20;99.90;;;;;;5078443;28;20222;-47
2022/01/04 07:18:06;;;;;;;26.80;12.17;;;8.20;99.90;;;;;;5082556;28;20318;-47
2022/01/04 07:20:33;;;;;;;18.87;11.20;;;8.20;99.90;;;;;;5081717;28;20214;-47
2022/01/04 07:23:00;;;;;;;20.73;12.37;;;8.20;99.90;;;;;;5068977;28;20211;-48
2022/01/04 07:25:28;;;;;;;17.00;11.20;;;8.20;99.90;;;;;;5072167;28;20215;-47
2022/01/04 07:27:55;;;;;;;22.17;11.47;;;8.20;99.90;;;;;;5051261;28;20211;-42
2022/01/04 07:30:22;;;;;;;20.33;11.03;;;8.10;99.90;;;;;;5077693;27;20210;-42
2022/01/04 07:32:49;;;;;;;17.23;11.20;;;8.10;99.90;;;;;;5069611;28;20207;-42
2022/01/04 07:35:15;;;;;;;21.63;12.07;;;8.10;99.90;;;;;;5076588;28;20209;-42
2022/01/04 07:37:42;;;;;;;19.30;11.03;;;8.10;99.90;;;;;;5070571;28;20203;-39
2022/01/04 07:40:10;;;;;;;19.27;11.37;;;8.10;99.90;;;;;;5080176;28;20289;-39
2022/01/04 07:42:38;;;;;;;21.07;11.67;;;8.10;99.90;;;;;;5072857;28;20212;-39
2022/01/04 07:45:06;;;;;;;16.00;10.97;;;8.20;99.90;;;;;;5057323;28;20230;-39
2022/01/04 07:47:33;;;;;;;19.80;11.27;;;8.20;99.90;;;;;;5080472;28;20829;-39
2022/01/04 07:50:00;;;;;;;19.63;11.50;;;8.20;99.90;;;;;;5057214;28;20853;-40
2022/01/04 07:52:27;;;;;;;28.17;12.30;;;8.10;99.90;;;;;;5067474;27;20264;-39
2022/01/04 07:54:54;;;;;;;21.17;12.37;;;8.30;99.90;;;;;;5058955;28;20207;-39
2022/01/04 07:57:20;;;;;;;20.47;10.63;;;8.20;99.90;;;;;;5079264;28;20224;-48
2022/01/04 07:59:49;;;;;;;18.37;10.40;;;8.20;99.90;;;;;;5079045;28;20200;-42
2022/01/04 08:02:16;;;;;;;25.47;12.30;;;8.20;99.90;;;;;;5064286;28;20203;-39
2022/01/04 08:04:43;;;;;;;18.57;10.50;;;8.20;99.90;;;;;;5080954;28;20204;-39
2022/01/04 08:07:10;;;;;;;21.07;11.40;;;8.20;99.90;;;;;;5068926;28;20786;-39
2022/01/04 08:09:37;;;;;;;19.13;11.43;;;8.20;99.90;;;;;;5059397;28;20228;-40
2022/01/04 08:12:04;;;;;;;20.67;10.83;;;8.20;99.90;;;;;;5079387;28;20210;-39
2022/01/04 08:14:32;;;;;;;18.27;11.37;;;8.20;99.90;;;;;;5074337;28;22173;-39
2022/01/04 08:17:00;;;;;;;24.43;11.03;;;8.20;99.90;;;;;;5058878;28;20966;-39
2022/01/04 08:19:27;;;;;;;18.80;10.43;;;8.20;99.90;;;;;;5060664;28;20196;-40
2022/01/04 08:21:54;;;;;;;18.43;10.70;;;8.10;99.90;;;;;;5071615;28;20213;-39
2022/01/04 08:24:20;;;;;;;18.57;11.20;;;8.20;99.90;;;;;;5065049;28;20204;-39
2022/01/04 08:26:47;;;;;;;19.43;10.70;;;8.20;99.90;;;;;;5065368;28;21454;-39
2022/01/04 08:29:14;;;;;;;19.37;11.07;;;8.10;99.90;;;;;;5077883;27;20249;-39
2022/01/04 08:31:41;;;;;;;16.43;10.00;;;8.20;99.90;;;;;;5060508;28;20257;-40
2022/01/04 08:34:09;;;;;;;18.40;10.07;;;8.10;99.90;;;;;;5068756;28;20301;-39
2022/01/04 08:36:38;;;;;;;21.17;10.87;;;8.20;99.90;;;;;;5072365;28;20832;-39
2022/01/04 08:39:05;;;;;;;19.00;10.67;;;8.20;99.90;;;;;;5060776;28;20199;-42
2022/01/04 08:41:32;;;;;;;18.13;11.37;;;8.20;99.90;;;;;;5069362;28;20211;-42
2022/01/04 08:43:59;;;;;;;16.63;11.23;;;8.20;99.90;;;;;;5069642;28;20218;-42
2022/01/04 08:46:26;;;;;;;18.87;10.13;;;8.20;99.90;;;;;;5063807;28;26132;-42
2022/01/04 08:48:53;;;;;;;21.23;11.63;;;8.20;99.90;;;;;;5069267;28;20216;-42
2022/01/04 08:51:21;;;;;;;19.83;11.13;;;8.20;99.90;;;;;;5048876;28;20200;-42
2022/01/04 08:53:48;;;;;;;16.73;11.00;;;8.30;99.90;;;;;;5069023;28;20711;-42
2022/01/04 08:56:18;;;;;;;21.80;10.60;;;8.30;99.90;;;;;;5068891;28;20861;-42
2022/01/04 08:58:45;;;;;;;16.77;10.97;;;8.30;99.90;;;;;;5071155;28;20209;-42
2022/01/04 09:01:12;;;;;;;20.80;10.60;;;8.30;99.90;;;;;;5064757;27;20817;-42
2022/01/04 09:03:39;;;;;;;17.83;11.20;;;8.40;99.90;;;;;;5039937;28;20238;-42
2022/01/04 09:06:07;;;;;;;17.63;11.40;;;8.30;99.90;;;;;;5031853;28;20224;-43
2022/01/04 09:08:36;;;;;;;16.90;11.90;;;8.30;99.90;;;;;;5066784;28;20207;-42
2022/01/04 09:11:03;;;;;;;21.87;12.27;;;8.30;99.90;;;;;;5065833;28;20222;-42
2022/01/04 09:13:35;;;;;;;15.20;10.40;;;8.30;99.90;;;;;;5065793;28;20211;-42
2022/01/04 09:18:48;;;;;;;18.57;10.60;;;8.30;99.90;;;;;;5042304;28;20250;-42
2022/01/04 09:21:18;;;;;;;20.37;10.57;;;8.30;99.90;;;;;;5050700;28;20214;-42
2022/01/04 09:23:48;;;;;;;20.67;11.00;;;8.30;99.90;;;;;;5059562;28;20250;-42
2022/01/04 09:26:17;;;;;;;17.03;9.87;;;8.30;99.90;;;;;;5060069;28;20655;-42
2022/01/04 09:28:44;;;;;;;18.03;10.17;;;8.30;99.90;;;;;;5058236;28;20590;-42
2022/01/04 09:31:12;;;;;;;15.80;9.43;;;8.30;99.90;;;;;;5070823;28;20203;-42
2022/01/04 09:33:39;;;;;;;15.17;8.87;;;8.30;99.90;;;;;;5057550;28;20651;-39
2022/01/04 09:36:07;;;;;;;16.13;8.87;;;8.30;99.90;;;;;;5075874;27;20741;-39
2022/01/04 09:38:34;;;;;;;14.37;8.73;;;8.30;99.90;;;;;;5072240;28;20219;-39
2022/01/04 09:41:03;;;;;;;14.90;8.57;;;8.30;99.90;;;;;;5063721;28;20694;-43
2022/01/04 09:43:30;;;;;;;14.17;8.17;;;8.30;99.90;;;;;;5074595;28;20941;-43
2022/01/04 09:45:57;;;;;;;16.57;8.07;;;8.20;99.90;;;;;;5066652;28;20215;-43
2022/01/04 09:48:24;;;;;;;15.00;8.43;;;8.20;99.90;;;;;;5077935;28;20225;-43
2022/01/04 09:50:51;;;;;;;13.47;7.57;;;8.20;99.90;;;;;;5053873;28;20579;-43
2022/01/04 09:53:20;;;;;;;17.80;8.17;;;8.20;99.90;;;;;;5063044;28;20199;-43
2022/01/04 09:55:50;;;;;;;16.10;7.97;;;8.20;99.90;;;;;;5054911;28;20395;-43
2022/01/04 09:58:20;;;;;;;11.10;6.77;;;8.10;99.90;;;;;;5059585;28;20214;-43
2022/01/04 10:00:47;;;;;;;6.77;3.60;;;8.10;99.90;;;;;;5065479;28;20801;-42
2022/01/04 10:03:16;;;;;;;6.90;4.23;;;7.90;99.90;;;;;;5066260;28;20207;-42
2022/01/04 10:05:44;;;;;;;6.90;3.33;;;7.80;99.90;;;;;;5032901;28;20232;-43
2022/01/04 10:08:12;;;;;;;4.73;2.20;;;7.70;99.90;;;;;;5057298;28;20203;-43
2022/01/04 10:10:40;;;;;;;4.03;2.10;;;7.70;99.90;;;;;;5054169;28;20216;-39
2022/01/04 10:13:09;;;;;;;3.50;1.90;;;7.70;99.90;;;;;;5055983;28;20219;-48
2022/01/04 10:15:40;;;;;;;4.57;1.80;;;7.70;99.90;;;;;;5069784;28;20218;-39
2022/01/04 10:18:23;;;;;;;4.63;2.13;;;7.70;99.90;;;;;;5063061;28;20212;-47
2022/01/04 10:20:53;;;;;;;2.77;1.40;;;7.60;99.90;;;;;;5055525;28;20208;-48
2022/01/04 10:23:22;;;;;;;3.83;1.73;;;7.60;99.90;;;;;;5059443;28;20199;-43
2022/01/04 10:25:50;;;;;;;4.53;1.90;;;7.50;99.90;;;;;;5059109;28;20220;-43
2022/01/04 10:28:31;;;;;;;4.63;1.77;;;7.50;99.90;;;;;;5069783;28;20206;-42
2022/01/04 10:31:02;;;;;;;3.80;1.93;;;7.40;99.90;;;;;;5061223;28;20219;-42
2022/01/04 10:33:31;;;;;;;2.60;1.57;;;7.40;99.90;;;;;;5080770;28;20303;-39
2022/01/04 10:36:00;;;;;;;4.30;1.70;;;7.40;99.90;;;;;;5067880;28;20944;-44
2022/01/04 10:38:29;;;;;;;2.93;1.43;;;7.30;99.90;;;;;;5052592;28;20280;-43
2022/01/04 10:41:00;;;;;;;5.17;1.60;;;7.30;99.90;;;;;;5058447;28;20415;-43
2022/01/04 10:43:28;;;;;;;6.57;1.83;;;7.40;99.90;;;;;;5072462;28;20576;-42
2022/01/04 10:45:57;;;;;;;3.70;1.70;;;7.40;99.90;;;;;;5053303;28;20227;-42
2022/01/04 10:48:27;;;;;;;4.90;2.07;;;7.40;99.90;;;;;;5077942;28;20204;-42
2022/01/04 10:50:56;;;;;;;3.13;2.03;;;7.40;99.90;;;;;;5068791;28;20885;-42
2022/01/04 10:53:26;;;;;;;5.70;2.23;;;7.40;99.90;;;;;;5057924;28;20246;-42
2022/01/04 10:56:04;;;;;;;4.17;1.80;;;7.40;99.90;;;;;;5074784;28;20219;-42
2022/01/04 10:58:34;;;;;;;6.07;2.10;;;7.30;99.90;;;;;;5071737;28;20204;-43
2022/01/04 11:01:05;;;;;;;6.07;2.10;;;7.40;99.90;;;;;;5050281;28;20265;-42
2022/01/04 11:03:35;;;;;;;2.70;1.97;;;7.40;99.90;;;;;;5078013;28;20201;-43
2022/01/04 11:06:08;;;;;;;8.93;2.83;;;7.30;99.90;;;;;;5069175;28;20235;-43
2022/01/04 11:08:36;;;;;;;6.53;2.63;;;7.30;99.90;;;;;;5062911;28;20210;-43
2022/01/04 11:11:04;;;;;;;6.63;2.50;;;7.30;99.90;;;;;;5062710;28;20662;-43
2022/01/04 11:13:31;;;;;;;6.53;2.83;;;7.40;99.90;;;;;;5071881;28;20206;-43
2022/01/04 11:16:00;;;;;;;6.77;3.27;;;7.40;99.90;;;;;;5019515;28;20219;-43
2022/01/04 11:18:28;;;;;;;6.97;2.53;;;7.40;99.90;;;;;;5063135;27;20241;-43
2022/01/04 11:20:57;;;;;;;3.57;2.40;;;7.50;99.90;;;;;;5066081;28;20243;-43
2022/01/04 11:23:27;;;;;;;6.03;2.70;;;7.50;99.90;;;;;;5063418;28;20658;-43
2022/01/04 11:25:54;;;;;;;6.87;2.60;;;7.60;99.90;;;;;;5055854;28;20227;-43
2022/01/04 11:28:23;;;;;;;4.57;2.27;;;7.60;99.90;;;;;;5077939;28;20841;-43
2022/01/04 11:31:12;;;;;;;7.20;2.87;;;7.70;99.90;;;;;;5048558;28;20208;-43
2022/01/04 11:33:50;;;;;;;9.20;3.50;;;7.70;99.90;;;;;;5059242;28;20214;-43
2022/01/04 11:36:21;;;;;;;3.87;2.63;;;7.70;99.90;;;;;;5068740;28;20218;-42
2022/01/04 11:38:49;;;;;;;4.20;2.37;;;7.70;99.90;;;;;;5075519;28;20196;-39
2022/01/04 11:41:42;;;;;;;7.43;2.00;;;7.70;99.90;;;;;;5058395;28;20207;-39
2022/01/04 11:44:19;;;;;;;6.20;2.23;;;7.60;99.90;;;;;;5078939;28;20370;-39
2022/01/04 11:47:01;;;;;;;4.30;2.07;;;7.60;99.90;;;;;;5030927;28;20323;-39
2022/01/04 11:49:29;;;;;;;2.93;1.87;;;7.50;99.90;;;;;;5074874;28;20204;-39
2022/01/04 11:51:58;;;;;;;5.50;2.23;;;7.50;99.90;;;;;;5058479;28;20586;-39
2022/01/04 11:54:27;;;;;;;4.23;1.87;;;7.30;99.90;;;;;;5048327;27;20257;-39
2022/01/04 11:56:57;;;;;;;4.97;1.80;;;7.00;99.90;;;;;;5036153;28;20231;-39
2022/01/04 11:59:26;;;;;;;7.07;1.13;;;6.90;99.90;;;;;;5056575;28;20207;-39
2022/01/04 12:01:54;;;;;;;2.63;1.30;;;6.90;99.90;;;;;;5034190;28;20219;-39
2022/01/04 12:04:51;;;;;;;4.80;1.30;;;6.80;99.90;;;;;;5036052;28;20207;-39
2022/01/04 12:07:48;;;;;;;3.70;1.20;;;6.80;99.90;;;;;;5042993;28;21406;-39
2022/01/04 12:10:38;;;;;;;6.23;1.50;;;6.80;99.90;;;;;;5047445;28;20219;-39
2022/01/04 12:13:11;;;;;;;3.70;1.63;;;6.70;99.90;;;;;;5028901;28;20216;-41
2022/01/04 12:15:49;;;;;;;1.27;1.00;;;6.70;99.90;;;;;;5024224;28;20205;-42
2022/01/04 12:18:46;;;;;;;4.43;1.37;;;6.50;99.90;;;;;;5033371;28;20204;-42
2022/01/04 12:21:20;;;;;;;1.80;1.37;;;6.50;99.90;;;;;;5051227;28;20200;-43
2022/01/04 12:23:49;;;;;;;2.47;1.50;;;6.40;99.90;;;;;;5049162;28;20208;-42
2022/01/04 12:26:28;;;;;;;2.43;1.30;;;6.40;99.90;;;;;;5041657;28;20223;-42
2022/01/04 12:29:33;;;;;;;0.40;0.40;;;6.30;99.90;;;;;;5028468;28;20967;-43
2022/01/04 12:32:04;;;;;;;0.83;0.63;;;6.20;99.90;;;;;;5045708;28;20847;-42
2022/01/04 12:34:40;;;;;;;1.47;0.50;;;6.10;99.90;;;;;;5049868;28;20278;-43
2022/01/04 12:37:15;;;;;;;1.20;0.73;;;6.10;99.90;;;;;;5035253;28;21040;-43
2022/01/04 12:39:45;;;;;;;1.70;0.50;;;6.00;99.90;;;;;;5042081;28;20201;-42
2022/01/04 12:42:15;;;;;;;0.60;0.40;;;5.90;99.90;;;;;;5053782;28;20205;-42
2022/01/04 12:44:42;;;;;;;1.50;0.80;;;5.90;99.90;;;;;;5031405;28;20216;-42
2022/01/04 12:47:10;;;;;;;2.20;1.00;;;5.80;99.90;;;;;;5042884;28;20231;-42
2022/01/04 12:49:37;;;;;;;1.50;0.90;;;5.90;99.90;;;;;;5041911;28;20200;-42
2022/01/04 12:52:07;;;;;;;4.10;0.83;;;6.10;99.90;;;;;;5046690;28;20361;-41
2022/01/04 12:54:35;;;;;;;5.90;1.47;;;5.80;99.90;;;;;;5052850;28;20374;-42
2022/01/04 12:57:06;;;;;;;2.50;0.80;;;5.80;99.90;;;;;;5029702;28;20229;-42
2022/01/04 12:59:37;;;;;;;5.43;0.80;;;5.70;99.90;;;;;;5042990;28;20208;-42
2022/01/04 13:02:11;;;;;;;11.03;1.47;;;5.70;99.90;;;;;;5025258;28;20337;-43